Time;durP1;ratioP1;P1;durP2;ratioP2;P2;SDS_P1;SDS_P2;PMS_P1;PMS_P2;Temp;Humidity;BMP_temperature;BMP_pressure;BME280_temperature;BME280_humidity;BME280_pressure;Samples;Min_cycle;Max_cycle;Signal;HPM_P1;HPM_P2
2022/09/15 00:00:10;;;;;;;;;;;14.60;99.90;;;;;;4965287;28;19984;-82
2022/09/15 00:02:39;;;;;;;;;;;14.60;99.90;;;;;;5001066;28;19925;-82
2022/09/15 00:05:05;;;;;;;;;;;14.70;99.90;;;;;;4986415;28;19925;-83
2022/09/15 00:07:31;;;;;;;;;;;14.50;99.90;;;;;;4988149;28;19929;-86
2022/09/15 00:09:57;;;;;;;;;;;14.60;99.90;;;;;;4984002;28;20480;-85
2022/09/15 00:12:23;;;;;;;;;;;14.70;99.90;;;;;;4967232;28;20482;-82
2022/09/15 00:14:48;;;;;;;;;;;14.60;99.90;;;;;;4993094;28;19940;-82
2022/09/15 00:17:14;;;;;;;;;;;14.60;99.90;;;;;;4968832;28;20134;-82
2022/09/15 00:19:41;;;;;;;;;;;14.70;99.90;;;;;;4966220;28;19933;-83
2022/09/15 00:22:07;;;;;;;;;;;14.70;99.90;;;;;;4998673;28;19937;-84
2022/09/15 00:24:33;;;;;;;;;;;14.70;99.90;;;;;;4977968;28;20087;-82
2022/09/15 00:26:58;;;;;;;;;;;14.70;99.90;;;;;;4995532;28;19953;-83
2022/09/15 00:29:24;;;;;;;;;;;14.70;99.90;;;;;;4989048;28;19933;-82
2022/09/15 00:31:50;;;;;;;;;;;14.70;99.90;;;;;;4993306;28;19930;-84
2022/09/15 00:34:16;;;;;;;;;;;14.70;99.90;;;;;;4969555;28;19933;-84
2022/09/15 00:36:42;;;;;;;;;;;14.70;99.90;;;;;;4986092;28;19929;-83
2022/09/15 00:39:07;;;;;;;;;;;14.70;99.90;;;;;;4987954;28;19971;-81
2022/09/15 00:41:33;;;;;;;;;;;14.70;99.90;;;;;;4994115;28;20020;-81
2022/09/15 00:44:03;;;;;;;;;;;14.70;99.90;;;;;;4995085;28;19925;-82
2022/09/15 00:46:35;;;;;;;;;;;14.70;99.90;;;;;;4980691;28;19941;-85
2022/09/15 00:49:06;;;;;;;;;;;14.80;99.90;;;;;;4997289;28;20280;-85
2022/09/15 00:51:47;;;;;;;;;;;14.70;99.90;;;;;;4996608;28;20176;-83
2022/09/15 00:54:21;;;;;;;;;;;14.80;99.90;;;;;;5017748;28;19925;-86
2022/09/15 00:56:48;;;;;;;;;;;14.80;99.90;;;;;;4976750;28;19926;-83
2022/09/15 00:59:16;;;;;;;;;;;14.70;99.90;;;;;;4983880;28;20093;-83
2022/09/15 01:01:44;;;;;;;;;;;14.70;99.90;;;;;;5005785;28;19968;-86
2022/09/15 01:04:11;;;;;;;;;;;14.70;99.90;;;;;;4988022;28;19929;-86
2022/09/15 01:06:41;;;;;;;;;;;14.80;99.90;;;;;;4992081;28;19930;-83
2022/09/15 01:09:13;;;;;;;;;;;14.70;99.90;;;;;;4999642;28;19968;-85
2022/09/15 01:11:41;;;;;;;;;;;14.70;99.90;;;;;;4999687;28;19975;-86
2022/09/15 01:14:07;;;;;;;;;;;14.70;99.90;;;;;;4972458;28;20089;-87
2022/09/15 01:16:51;;;;;;;;;;;14.80;99.90;;;;;;4979349;28;19960;-92
2022/09/15 01:19:32;;;;;;;;;;;14.70;99.90;;;;;;5000401;28;20011;-84
2022/09/15 01:21:58;;;;;;;;;;;14.80;99.90;;;;;;5000017;28;19930;-87
2022/09/15 01:24:41;;;;;;;;;;;14.80;99.90;;;;;;4992021;28;20397;-80
2022/09/15 01:27:23;;;;;;;;;;;14.80;99.90;;;;;;4978902;28;19925;-88
2022/09/15 01:29:53;;;;;;;;;;;14.80;99.90;;;;;;4994962;28;19932;-86
2022/09/15 01:35:32;;;;;;;;;;;14.80;99.90;;;;;;5011087;28;20428;-87
2022/09/15 01:37:58;;;;;;;;;;;14.80;99.90;;;;;;4979219;28;19983;-80
2022/09/15 01:40:38;;;;;;;;;;;14.80;99.90;;;;;;5001766;28;19921;-90
2022/09/15 01:43:05;;;;;;;;;;;14.80;99.90;;;;;;5009260;28;19929;-83
2022/09/15 01:45:32;;;;;;;;;;;14.80;99.90;;;;;;5011012;28;19972;-84
2022/09/15 01:48:01;;;;;;;;;;;14.80;99.90;;;;;;5013157;28;19925;-81
2022/09/15 01:50:32;;;;;;;;;;;14.80;99.90;;;;;;4990795;28;19925;-89
2022/09/15 01:53:01;;;;;;;;;;;14.80;99.90;;;;;;4988883;28;20422;-80
2022/09/15 01:55:39;;;;;;;;;;;14.80;99.90;;;;;;5008765;28;19937;-81
2022/09/15 01:58:05;;;;;;;;;;;14.80;99.90;;;;;;4993469;28;19936;-81
2022/09/15 02:00:32;;;;;;;;;;;14.80;99.90;;;;;;4998405;28;20413;-85
2022/09/15 02:03:03;;;;;;;;;;;14.80;99.90;;;;;;5003229;28;19926;-82
2022/09/15 02:08:57;;;;;;;;;;;14.80;99.90;;;;;;5040448;23;19990;-77
2022/09/15 02:11:27;;;;;;;;;;;14.80;99.90;;;;;;4988635;28;20292;-77
2022/09/15 02:13:54;;;;;;;;;;;14.70;99.90;;;;;;4989990;28;19933;-76
2022/09/15 02:16:21;;;;;;;;;;;14.60;99.90;;;;;;4989425;28;19955;-77
2022/09/15 02:18:53;;;;;;;;;;;14.60;99.90;;;;;;4988601;28;19925;-77
2022/09/15 02:21:28;;;;;;;;;;;14.40;99.90;;;;;;4988508;28;19925;-76
2022/09/15 02:23:57;;;;;;;;;;;14.40;99.90;;;;;;4989200;28;19932;-78
2022/09/15 02:26:25;;;;;;;;;;;14.30;99.90;;;;;;4978667;28;19926;-77
2022/09/15 02:28:51;;;;;;;;;;;;;;;;;;4987215;28;19929;-77
2022/09/15 02:31:17;;;;;;;;;;;;;;;;;;4988186;28;19921;-77
2022/09/15 02:33:49;;;;;;;;;;;14.30;99.90;;;;;;4972420;28;20425;-77
2022/09/15 02:36:17;;;;;;;;;;;14.20;99.90;;;;;;4990928;28;20493;-78
2022/09/15 02:38:46;;;;;;;;;;;14.10;99.90;;;;;;4973117;28;19925;-79
2022/09/15 02:41:13;;;;;;;;;;;14.10;99.90;;;;;;4975893;28;20467;-80
2022/09/15 02:43:45;;;;;;;;;;;14.00;99.90;;;;;;4971556;28;19926;-78
2022/09/15 02:46:11;;;;;;;;;;;;;;;;;;4973186;28;19925;-77
2022/09/15 02:48:38;;;;;;;;;;;13.80;99.90;;;;;;4988400;28;19929;-77
2022/09/15 02:51:03;;;;;;;;;;;13.80;99.90;;;;;;4972444;28;19933;-77
2022/09/15 02:53:29;;;;;;;;;;;13.70;99.90;;;;;;4987167;28;19937;-76
2022/09/15 02:55:56;;;;;;;;;;;13.70;99.90;;;;;;4978252;28;19937;-76
2022/09/15 02:58:22;;;;;;;;;;;13.70;99.90;;;;;;4980118;28;19948;-76
2022/09/15 03:00:49;;;;;;;;;;;13.70;99.90;;;;;;4986859;28;20312;-76
2022/09/15 03:03:15;;;;;;;;;;;13.70;99.90;;;;;;4988685;28;19925;-77
2022/09/15 03:05:40;;;;;;;;;;;13.70;99.90;;;;;;4972335;28;19926;-77
2022/09/15 03:08:06;;;;;;;;;;;13.70;99.90;;;;;;4972488;28;20419;-77
2022/09/15 03:10:32;;;;;;;;;;;13.70;99.90;;;;;;4988609;28;19929;-78
2022/09/15 03:12:58;;;;;;;;;;;13.70;99.90;;;;;;4971970;28;20019;-77
2022/09/15 03:15:24;;;;;;;;;;;13.70;99.90;;;;;;4987492;28;19932;-78
2022/09/15 03:17:50;;;;;;;;;;;13.70;99.90;;;;;;4956308;28;19940;-78
2022/09/15 03:20:19;;;;;;;;;;;13.70;99.90;;;;;;4987034;28;19925;-78
2022/09/15 03:22:45;;;;;;;;;;;13.70;99.90;;;;;;4988568;28;20343;-79
2022/09/15 03:25:11;;;;;;;;;;;13.70;99.90;;;;;;4987962;28;19930;-78
2022/09/15 03:27:37;;;;;;;;;;;13.70;99.90;;;;;;4987513;28;19945;-79
2022/09/15 03:30:04;;;;;;;;;;;13.80;99.90;;;;;;4986965;28;19926;-78
2022/09/15 03:32:30;;;;;;;;;;;13.80;99.90;;;;;;4988652;28;20012;-79
2022/09/15 03:34:56;;;;;;;;;;;13.80;99.90;;;;;;4984660;28;20020;-78
2022/09/15 03:37:22;;;;;;;;;;;13.80;99.90;;;;;;4970751;28;19929;-79
2022/09/15 03:39:47;;;;;;;;;;;13.80;99.90;;;;;;4972062;28;20591;-78
2022/09/15 03:42:13;;;;;;;;;;;13.80;99.90;;;;;;4972494;28;19925;-78
2022/09/15 03:44:40;;;;;;;;;;;13.80;99.90;;;;;;4987737;28;19933;-79
2022/09/15 03:47:06;;;;;;;;;;;13.80;99.90;;;;;;4973268;28;20436;-79
2022/09/15 03:49:32;;;;;;;;;;;13.80;99.90;;;;;;4971716;28;20028;-80
2022/09/15 03:51:57;;;;;;;;;;;13.80;99.90;;;;;;4972529;28;19925;-78
2022/09/15 03:54:24;;;;;;;;;;;13.80;99.90;;;;;;4971878;28;20399;-77
2022/09/15 03:56:50;;;;;;;;;;;13.80;99.90;;;;;;4977869;28;19932;-77
2022/09/15 03:59:17;;;;;;;;;;;13.80;99.90;;;;;;4971041;28;19925;-77
2022/09/15 04:01:44;;;;;;;;;;;13.80;99.90;;;;;;4985440;28;19921;-78
2022/09/15 04:04:10;;;;;;;;;;;13.80;99.90;;;;;;4987752;28;19930;-77
2022/09/15 04:06:37;;;;;;;;;;;13.80;99.90;;;;;;4987005;28;19922;-79
2022/09/15 04:09:02;;;;;;;;;;;13.80;99.90;;;;;;4971917;28;20005;-78
2022/09/15 04:11:28;;;;;;;;;;;13.80;99.90;;;;;;4987608;28;19937;-78
2022/09/15 04:13:54;;;;;;;;;;;13.80;99.90;;;;;;4987232;28;19937;-78
2022/09/15 04:16:26;;;;;;;;;;;13.80;99.90;;;;;;4987985;28;20676;-79
2022/09/15 04:18:52;;;;;;;;;;;13.80;99.90;;;;;;4986294;28;19980;-78
2022/09/15 04:21:20;;;;;;;;;;;13.80;99.90;;;;;;4970077;28;19933;-78
2022/09/15 04:23:47;;;;;;;;;;;13.80;99.90;;;;;;4986827;28;19933;-79
2022/09/15 04:26:24;;;;;;;;;;;13.80;99.90;;;;;;4987812;28;19949;-80
2022/09/15 04:28:50;;;;;;;;;;;13.80;99.90;;;;;;4987910;28;19930;-79
2022/09/15 04:31:16;;;;;;;;;;;13.80;99.90;;;;;;4955558;28;19980;-80
2022/09/15 04:33:43;;;;;;;;;;;13.80;99.90;;;;;;4971123;28;19933;-80
2022/09/15 04:36:10;;;;;;;;;;;13.80;99.90;;;;;;4988074;28;19932;-79
2022/09/15 04:38:36;;;;;;;;;;;13.80;99.90;;;;;;4976433;28;20257;-79
2022/09/15 04:41:02;;;;;;;;;;;13.80;99.90;;;;;;4965638;28;19937;-80
2022/09/15 04:43:28;;;;;;;;;;;13.80;99.90;;;;;;4970259;28;20368;-81
2022/09/15 04:45:54;;;;;;;;;;;13.70;99.90;;;;;;4971931;28;19945;-79
2022/09/15 04:48:21;;;;;;;;;;;13.70;99.90;;;;;;4960583;28;19938;-79
2022/09/15 04:50:46;;;;;;;;;;;13.70;99.90;;;;;;4987426;28;20012;-81
2022/09/15 04:53:12;;;;;;;;;;;13.70;99.90;;;;;;4971623;28;20012;-79
2022/09/15 04:55:38;;;;;;;;;;;13.60;99.90;;;;;;4971582;28;20372;-80
2022/09/15 04:58:04;;;;;;;;;;;13.60;99.90;;;;;;4973953;28;20431;-79
2022/09/15 05:00:30;;;;;;;;;;;13.60;99.90;;;;;;4989264;28;20040;-79
2022/09/15 05:02:57;;;;;;;;;;;13.60;99.90;;;;;;4975255;28;19929;-81
2022/09/15 05:05:24;;;;;;;;;;;13.60;99.90;;;;;;4976876;28;19926;-81
2022/09/15 05:07:52;;;;;;;;;;;13.60;99.90;;;;;;4989388;28;19964;-80
2022/09/15 05:10:18;;;;;;;;;;;13.60;99.90;;;;;;4991881;28;20303;-79
2022/09/15 05:12:45;;;;;;;;;;;13.60;99.90;;;;;;4991487;28;19933;-81
2022/09/15 05:15:11;;;;;;;;;;;13.60;99.90;;;;;;4972335;28;19944;-81
2022/09/15 05:17:37;;;;;;;;;;;13.60;99.90;;;;;;4959580;28;20415;-79
2022/09/15 05:20:03;;;;;;;;;;;13.60;99.90;;;;;;4973417;28;19937;-79
2022/09/15 05:22:29;;;;;;;;;;;13.60;99.90;;;;;;4974150;28;20272;-79
2022/09/15 05:24:56;;;;;;;;;;;13.60;99.90;;;;;;4976312;28;20261;-85
2022/09/15 05:27:22;;;;;;;;;;;13.60;99.90;;;;;;4993796;28;19930;-84
2022/09/15 05:29:48;;;;;;;;;;;13.60;99.90;;;;;;4977379;28;19961;-85
2022/09/15 05:32:16;;;;;;;;;;;13.60;99.90;;;;;;4995867;28;19991;-85
2022/09/15 05:34:42;;;;;;;;;;;13.60;99.90;;;;;;4976281;28;19929;-85
2022/09/15 05:37:09;;;;;;;;;;;13.60;99.90;;;;;;4993453;28;19933;-84
2022/09/15 05:39:35;;;;;;;;;;;13.60;99.90;;;;;;4956521;28;20384;-84
2022/09/15 05:42:00;;;;;;;;;;;13.60;99.90;;;;;;4989322;28;19930;-80
2022/09/15 05:44:27;;;;;;;;;;;13.60;99.90;;;;;;4976515;28;20295;-80
2022/09/15 05:46:53;;;;;;;;;;;13.60;99.90;;;;;;4988607;28;20360;-81
2022/09/15 05:49:19;;;;;;;;;;;13.60;99.90;;;;;;4971319;28;19973;-86
2022/09/15 05:51:45;;;;;;;;;;;13.70;99.90;;;;;;4988373;28;19926;-81
2022/09/15 05:54:11;;;;;;;;;;;13.70;99.90;;;;;;4963692;28;19929;-80
2022/09/15 05:56:36;;;;;;;;;;;13.60;99.90;;;;;;4989971;28;19932;-80
2022/09/15 05:59:02;;;;;;;;;;;13.70;99.90;;;;;;4974353;28;20777;-79
2022/09/15 06:01:29;;;;;;;;;;;13.70;99.90;;;;;;4978332;28;19961;-85
2022/09/15 06:03:55;;;;;;;;;;;13.70;99.90;;;;;;4971790;28;19980;-82
2022/09/15 06:06:21;;;;;;;;;;;13.80;99.90;;;;;;4987903;28;19956;-83
2022/09/15 06:08:48;;;;;;;;;;;13.80;99.90;;;;;;4972548;28;20012;-83
2022/09/15 06:11:15;;;;;;;;;;;13.80;99.90;;;;;;4986751;28;20012;-82
2022/09/15 06:13:41;;;;;;;;;;;13.90;99.90;;;;;;4989389;28;19934;-79
2022/09/15 06:16:08;;;;;;;;;;;13.90;99.90;;;;;;4970756;28;19926;-80
2022/09/15 06:18:36;;;;;;;;;;;14.00;99.90;;;;;;4971785;28;20137;-79
2022/09/15 06:21:06;;;;;;;;;;;13.90;99.90;;;;;;4988529;28;19952;-81
2022/09/15 06:23:34;;;;;;;;;;;14.00;99.90;;;;;;4972289;28;19980;-82
2022/09/15 06:26:03;;;;;;;;;;;14.10;99.90;;;;;;4980168;28;19969;-81
2022/09/15 06:28:29;;;;;;;;;;;14.10;99.90;;;;;;4989049;28;19933;-84
2022/09/15 06:30:55;;;;;;;;;;;14.10;99.90;;;;;;4981569;28;20415;-82
2022/09/15 06:33:21;;;;;;;;;;;14.20;99.90;;;;;;4985161;28;19936;-86
2022/09/15 06:35:47;;;;;;;;;;;14.30;99.90;;;;;;4955768;28;19979;-83
2022/09/15 06:38:12;;;;;;;;;;;14.30;99.90;;;;;;4971569;28;20293;-82
2022/09/15 06:40:39;;;;;;;;;;;14.30;99.90;;;;;;4973003;28;20016;-84
2022/09/15 06:43:04;;;;;;;;;;;14.40;99.90;;;;;;4986339;28;20458;-85
2022/09/15 06:45:30;;;;;;;;;;;14.40;99.90;;;;;;4971785;28;19929;-85
2022/09/15 06:47:56;;;;;;;;;;;14.40;99.90;;;;;;4986086;28;19930;-83
2022/09/15 06:50:22;;;;;;;;;;;14.50;99.90;;;;;;4984902;28;20359;-82
2022/09/15 06:52:47;;;;;;;;;;;14.50;99.90;;;;;;4986365;28;19951;-84
2022/09/15 06:55:13;;;;;;;;;;;14.50;99.90;;;;;;4969458;28;19925;-84
2022/09/15 06:57:39;;;;;;;;;;;;;;;;;;4986871;28;19960;-85
2022/09/15 07:00:08;;;;;;;;;;;14.60;99.90;;;;;;4988356;28;19957;-84
2022/09/15 07:02:33;;;;;;;;;;;14.70;99.90;;;;;;4955140;28;20012;-86
2022/09/15 07:05:02;;;;;;;;;;;14.70;99.90;;;;;;4953355;28;20009;-83
2022/09/15 07:07:28;;;;;;;;;;;14.70;99.90;;;;;;4972696;28;20341;-79
2022/09/15 07:09:54;;;;;;;;;;;14.70;99.90;;;;;;4987560;28;19969;-78
2022/09/15 07:12:20;;;;;;;;;;;14.80;99.90;;;;;;4990490;28;19934;-86
2022/09/15 07:14:46;;;;;;;;;;;;;;;;;;4986309;28;19930;-79
2022/09/15 07:17:11;;;;;;;;;;;15.10;99.90;;;;;;5005415;28;19960;-79
2022/09/15 07:19:40;;;;;;;;;;;15.20;99.90;;;;;;4985072;28;19933;-83
2022/09/15 07:22:06;;;;;;;;;;;15.30;99.90;;;;;;4972686;28;19925;-84
2022/09/15 07:24:31;;;;;;;;;;;15.30;99.90;;;;;;4987006;28;19987;-82
2022/09/15 07:26:57;;;;;;;;;;;15.30;99.90;;;;;;4966483;28;19926;-81
2022/09/15 07:29:23;;;;;;;;;;;15.30;99.90;;;;;;4991623;28;20446;-84
2022/09/15 07:31:49;;;;;;;;;;;15.30;99.90;;;;;;4969876;28;20280;-83
2022/09/15 07:34:15;;;;;;;;;;;15.30;99.90;;;;;;4970395;28;19933;-80
2022/09/15 07:36:41;;;;;;;;;;;15.30;99.90;;;;;;4985041;28;19925;-78
2022/09/15 07:39:06;;;;;;;;;;;15.40;99.90;;;;;;5007459;28;20599;-79
2022/09/15 07:41:32;;;;;;;;;;;15.40;99.90;;;;;;4984153;28;19936;-84
2022/09/15 07:43:58;;;;;;;;;;;15.50;99.90;;;;;;4986837;28;19973;-81
2022/09/15 07:46:28;;;;;;;;;;;15.60;99.90;;;;;;4970223;28;20341;-79
2022/09/15 07:48:57;;;;;;;;;;;15.60;99.90;;;;;;4968275;28;19933;-79
2022/09/15 07:51:24;;;;;;;;;;;15.60;99.90;;;;;;4969883;28;19926;-79
2022/09/15 07:53:50;;;;;;;;;;;15.60;99.90;;;;;;4986383;28;20475;-78
2022/09/15 07:56:19;;;;;;;;;;;15.50;99.90;;;;;;4986543;28;19989;-78
2022/09/15 07:58:45;;;;;;;;;;;15.50;99.90;;;;;;4973721;28;20015;-79
2022/09/15 08:01:13;;;;;;;;;;;15.50;99.90;;;;;;4986539;28;19925;-78
2022/09/15 08:03:40;;;;;;;;;;;15.50;99.90;;;;;;4986059;28;19929;-78
2022/09/15 08:06:07;;;;;;;;;;;15.40;99.90;;;;;;4986769;28;20384;-79
2022/09/15 08:08:33;;;;;;;;;;;15.50;99.90;;;;;;4969969;28;19964;-79
2022/09/15 08:10:59;;;;;;;;;;;15.50;99.90;;;;;;4968233;28;19980;-78
2022/09/15 08:13:24;;;;;;;;;;;15.60;99.90;;;;;;4970150;28;19929;-80
2022/09/15 08:15:51;;;;;;;;;;;15.60;99.90;;;;;;4986752;28;19937;-79
2022/09/15 08:18:16;;;;;;;;;;;15.70;99.90;;;;;;4969471;28;19926;-78
2022/09/15 08:20:42;;;;;;;;;;;15.70;99.90;;;;;;4970747;28;19928;-79
2022/09/15 08:23:10;;;;;;;;;;;15.90;99.90;;;;;;4986003;28;19930;-80
2022/09/15 08:25:37;;;;;;;;;;;16.10;99.90;;;;;;4986836;28;19978;-81
2022/09/15 08:28:03;;;;;;;;;;;16.10;99.90;;;;;;4972200;28;19952;-79
2022/09/15 08:30:29;;;;;;;;;;;16.10;99.90;;;;;;4987508;28;19926;-78
2022/09/15 08:32:55;;;;;;;;;;;16.10;99.90;;;;;;4969869;28;19976;-79
2022/09/15 08:35:20;;;;;;;;;;;16.10;99.90;;;;;;4972339;28;20003;-77
2022/09/15 08:37:46;;;;;;;;;;;16.10;99.90;;;;;;4992261;28;20491;-79
2022/09/15 08:40:24;;;;;;;;;;;16.10;99.90;;;;;;4974951;28;20361;-76
2022/09/15 08:42:52;;;;;;;;;;;16.00;99.90;;;;;;4974090;28;19925;-76
2022/09/15 08:45:26;;;;;;;;;;;15.90;99.90;;;;;;4988466;28;19932;-76
2022/09/15 08:47:57;;;;;;;;;;;15.90;99.90;;;;;;4991644;28;19929;-77
2022/09/15 08:50:37;;;;;;;;;;;15.80;99.90;;;;;;4970640;28;19980;-79
2022/09/15 08:53:11;;;;;;;;;;;15.90;99.90;;;;;;4988897;28;19938;-77
2022/09/15 08:55:53;;;;;;;;;;;15.90;99.90;;;;;;4989844;28;19965;-80
2022/09/15 08:58:27;;;;;;;;;;;16.00;99.90;;;;;;4977945;28;19925;-78
2022/09/15 09:01:07;;;;;;;;;;;16.00;99.90;;;;;;4989259;28;19999;-77
2022/09/15 09:03:54;;;;;;;;;;;16.00;99.90;;;;;;4975952;28;19936;-76
2022/09/15 09:06:41;;;;;;;;;;;16.10;99.90;;;;;;4973624;28;19951;-78
2022/09/15 09:09:07;;;;;;;;;;;16.00;99.90;;;;;;4975406;28;19968;-78
2022/09/15 09:11:39;;;;;;;;;;;16.00;99.90;;;;;;4975071;28;19991;-78
2022/09/15 09:14:05;;;;;;;;;;;16.10;99.90;;;;;;4990429;28;19926;-79
2022/09/15 09:16:42;;;;;;;;;;;16.00;99.90;;;;;;4973152;28;19932;-80
2022/09/15 09:19:17;;;;;;;;;;;16.00;99.90;;;;;;4971945;28;19925;-79
2022/09/15 09:21:48;;;;;;;;;;;15.90;99.90;;;;;;4987905;28;19933;-81
2022/09/15 09:24:18;;;;;;;;;;;15.80;99.90;;;;;;4973165;28;19933;-79
2022/09/15 09:26:48;;;;;;;;;;;15.80;99.90;;;;;;4989366;28;20381;-78
2022/09/15 09:29:18;;;;;;;;;;;15.80;99.90;;;;;;4990903;28;21279;-78
2022/09/15 09:31:47;;;;;;;;;;;15.70;99.90;;;;;;4989737;28;19976;-80
2022/09/15 09:34:34;;;;;;;;;;;15.60;99.90;;;;;;4971808;28;19969;-78
2022/09/15 09:37:10;;;;;;;;;;;15.50;99.90;;;;;;4972775;28;20000;-81
2022/09/15 09:39:35;;;;;;;;;;;15.50;99.90;;;;;;4990896;28;19933;-77
2022/09/15 09:42:01;;;;;;;;;;;15.40;99.90;;;;;;4957516;28;19936;-79
2022/09/15 09:44:30;;;;;;;;;;;15.40;99.90;;;;;;4991044;28;19930;-79
2022/09/15 09:46:58;;;;;;;;;;;15.40;99.90;;;;;;4970922;28;19983;-79
2022/09/15 09:49:29;;;;;;;;;;;15.50;99.90;;;;;;4992052;28;19925;-91
2022/09/15 09:52:02;;;;;;;;;;;15.50;99.90;;;;;;4983111;28;20656;-90
2022/09/15 09:54:31;;;;;;;;;;;15.50;99.90;;;;;;4982323;28;19926;-88
2022/09/15 09:57:15;;;;;;;;;;;15.60;99.90;;;;;;4978986;28;19929;-87
2022/09/15 09:59:45;;;;;;;;;;;15.60;99.90;;;;;;4982681;28;19925;-78
2022/09/15 10:02:14;;;;;;;;;;;15.60;99.90;;;;;;4975019;28;19942;-80
2022/09/15 10:04:46;;;;;;;;;;;15.70;99.90;;;;;;4968934;28;19929;-80
2022/09/15 10:07:13;;;;;;;;;;;15.70;99.90;;;;;;4986398;28;19936;-81
2022/09/15 10:09:48;;;;;;;;;;;15.70;99.90;;;;;;4952268;28;19934;-79
2022/09/15 10:12:19;;;;;;;;;;;15.80;99.90;;;;;;4953034;28;19984;-80
2022/09/15 10:14:49;;;;;;;;;;;16.00;99.90;;;;;;4985021;28;20379;-84
2022/09/15 10:17:19;;;;;;;;;;;16.00;99.90;;;;;;4967863;28;19999;-82
2022/09/15 10:19:55;;;;;;;;;;;16.10;99.90;;;;;;4968667;28;20039;-80
2022/09/15 10:22:36;;;;;;;;;;;16.30;99.90;;;;;;4968538;28;19937;-78
2022/09/15 10:25:03;;;;;;;;;;;16.40;99.90;;;;;;4972374;28;20511;-80
2022/09/15 10:27:33;;;;;;;;;;;16.40;99.90;;;;;;4969147;28;19926;-79
2022/09/15 10:30:11;;;;;;;;;;;16.30;99.90;;;;;;4972427;28;19985;-85
2022/09/15 10:32:37;;;;;;;;;;;16.10;99.90;;;;;;4984588;28;19925;-78
2022/09/15 10:35:05;;;;;;;;;;;15.80;99.90;;;;;;4951327;28;19936;-79
2022/09/15 10:37:31;;;;;;;;;;;15.50;99.90;;;;;;4986716;28;20646;-80
2022/09/15 10:39:58;;;;;;;;;;;15.30;99.90;;;;;;4969391;28;19929;-77
2022/09/15 10:42:32;;;;;;;;;;;15.00;99.90;;;;;;4984302;28;19991;-79
2022/09/15 10:45:05;;;;;;;;;;;14.90;99.90;;;;;;4992112;28;19987;-86
2022/09/15 10:47:41;;;;;;;;;;;14.80;99.90;;;;;;5006661;28;19925;-88
2022/09/15 10:50:12;;;;;;;;;;;14.70;99.90;;;;;;4973274;28;19925;-80
2022/09/15 10:52:51;;;;;;;;;;;14.60;99.90;;;;;;4989475;28;20008;-79
2022/09/15 10:55:23;;;;;;;;;;;14.60;99.90;;;;;;4972141;28;20543;-78
2022/09/15 10:57:57;;;;;;;;;;;14.60;99.90;;;;;;4971369;28;19925;-81
2022/09/15 11:00:24;;;;;;;;;;;14.70;99.90;;;;;;4967773;28;19926;-81
2022/09/15 11:02:56;;;;;;;;;;;14.80;99.90;;;;;;4972947;28;19925;-83
2022/09/15 11:05:22;;;;;;;;;;;14.90;99.90;;;;;;4970657;28;20431;-81
2022/09/15 11:08:07;;;;;;;;;;;15.00;99.90;;;;;;4987971;28;19936;-79
2022/09/15 11:10:38;;;;;;;;;;;15.10;99.90;;;;;;4973717;28;20016;-80
2022/09/15 11:13:04;;;;;;;;;;;;;;;;;;4984080;28;19926;-78
2022/09/15 11:15:46;;;;;;;;;;;15.30;99.90;;;;;;4984417;28;20008;-80
2022/09/15 11:18:20;;;;;;;;;;;15.40;99.90;;;;;;4970935;28;20547;-82
2022/09/15 11:20:58;;;;;;;;;;;15.40;99.90;;;;;;5005057;28;19926;-82
2022/09/15 11:23:37;;;;;;;;;;;15.50;99.90;;;;;;4986823;28;20301;-84
2022/09/15 11:26:05;;;;;;;;;;;15.50;99.90;;;;;;4972320;28;20222;-79
2022/09/15 11:28:37;;;;;;;;;;;15.60;99.90;;;;;;4987966;28;19980;-80
2022/09/15 11:31:25;;;;;;;;;;;15.60;99.90;;;;;;4988148;28;19925;-84
2022/09/15 11:33:57;;;;;;;;;;;15.60;99.90;;;;;;4974754;28;20024;-80
2022/09/15 11:36:32;;;;;;;;;;;15.60;99.90;;;;;;4970071;28;20016;-82
2022/09/15 11:39:02;;;;;;;;;;;15.70;99.90;;;;;;4988188;28;20016;-81
2022/09/15 11:41:37;;;;;;;;;;;15.80;99.90;;;;;;4974463;28;19936;-81
2022/09/15 11:44:17;;;;;;;;;;;16.00;99.90;;;;;;4990684;28;19935;-80
2022/09/15 11:46:58;;;;;;;;;;;16.20;99.90;;;;;;4989987;28;19926;-83
2022/09/15 11:49:35;;;;;;;;;;;16.40;99.90;;;;;;4969995;28;19926;-82
2022/09/15 11:52:21;;;;;;;;;;;16.50;99.90;;;;;;4993476;28;20207;-85
2022/09/15 11:54:56;;;;;;;;;;;16.50;99.90;;;;;;4965436;28;19972;-79
2022/09/15 11:57:33;;;;;;;;;;;16.50;99.90;;;;;;4983290;28;19933;-83
2022/09/15 12:00:04;;;;;;;;;;;16.40;99.90;;;;;;4967701;28;19926;-80
2022/09/15 12:02:33;;;;;;;;;;;16.60;99.90;;;;;;4991591;28;19930;-84
2022/09/15 12:05:01;;;;;;;;;;;16.80;99.90;;;;;;4971995;28;19928;-85
2022/09/15 12:07:29;;;;;;;;;;;16.80;99.90;;;;;;4989693;28;20404;-81
2022/09/15 12:10:03;;;;;;;;;;;16.90;99.90;;;;;;4983399;28;19929;-78
2022/09/15 12:12:31;;;;;;;;;;;16.90;99.90;;;;;;4984320;28;20388;-81
2022/09/15 12:14:57;;;;;;;;;;;16.90;99.90;;;;;;4955431;28;19932;-77
2022/09/15 12:17:42;;;;;;;;;;;16.90;99.90;;;;;;4956246;28;20336;-82
2022/09/15 12:20:16;;;;;;;;;;;16.90;99.90;;;;;;4984671;28;19925;-84
2022/09/15 12:22:45;;;;;;;;;;;16.90;99.90;;;;;;4989858;28;19929;-80
2022/09/15 12:25:10;;;;;;;;;;;16.70;99.90;;;;;;4985513;28;19991;-81
2022/09/15 12:27:36;;;;;;;;;;;16.60;99.90;;;;;;4973770;28;19956;-86
2022/09/15 12:30:04;;;;;;;;;;;16.60;99.90;;;;;;4970188;28;19940;-79
2022/09/15 12:32:32;;;;;;;;;;;16.60;99.90;;;;;;4970103;28;19948;-76
2022/09/15 12:35:16;;;;;;;;;;;16.60;99.90;;;;;;4969584;28;20620;-83
2022/09/15 12:37:43;;;;;;;;;;;16.60;99.90;;;;;;4955577;28;19952;-78
2022/09/15 12:40:31;;;;;;;;;;;16.70;99.90;;;;;;4938883;28;19933;-79
2022/09/15 12:42:58;;;;;;;;;;;16.80;99.90;;;;;;4959658;28;19937;-78
2022/09/15 12:45:27;;;;;;;;;;;16.80;99.90;;;;;;4978688;28;19929;-78
2022/09/15 12:48:01;;;;;;;;;;;17.00;99.90;;;;;;4975411;28;20463;-83
2022/09/15 12:50:29;;;;;;;;;;;17.20;99.90;;;;;;4956437;28;19934;-79
2022/09/15 12:53:00;;;;;;;;;;;17.40;99.90;;;;;;4973587;28;20012;-76
2022/09/15 12:55:31;;;;;;;;;;;17.50;99.90;;;;;;4974454;28;19936;-76
2022/09/15 12:57:59;;;;;;;;;;;17.50;99.90;;;;;;4956859;28;19937;-79
2022/09/15 13:00:28;;;;;;;;;;;17.40;99.90;;;;;;4958829;28;19933;-82
2022/09/15 13:02:54;;;;;;;;;;;17.30;99.90;;;;;;4973421;28;19937;-76
2022/09/15 13:05:39;;;;;;;;;;;17.10;99.90;;;;;;4958207;28;20439;-81
2022/09/15 13:08:08;;;;;;;;;;;17.00;99.90;;;;;;4975436;28;19941;-77
2022/09/15 13:10:35;;;;;;;;;;;16.80;99.90;;;;;;4959509;28;19937;-79
2022/09/15 13:13:16;;;;;;;;;;;16.70;99.90;;;;;;4974980;28;20353;-79
2022/09/15 13:15:43;;;;;;;;;;;16.70;99.90;;;;;;4974607;28;19933;-77
2022/09/15 13:18:11;;;;;;;;;;;16.70;99.90;;;;;;4976700;28;19933;-79
2022/09/15 13:20:37;;;;;;;;;;;16.80;99.90;;;;;;4960227;28;20455;-79
2022/09/15 13:23:07;;;;;;;;;;;16.90;99.90;;;;;;4979309;28;20015;-80
2022/09/15 13:25:33;;;;;;;;;;;17.00;99.90;;;;;;4980975;28;20032;-84
2022/09/15 13:28:02;;;;;;;;;;;17.00;99.90;;;;;;4968888;28;20016;-84
2022/09/15 13:30:51;;;;;;;;;;;17.00;99.90;;;;;;4972263;28;19956;-81
2022/09/15 13:33:37;;;;;;;;;;;16.90;99.90;;;;;;4969922;28;19926;-79
2022/09/15 13:36:06;;;;;;;;;;;16.80;99.90;;;;;;4968395;28;19944;-82
2022/09/15 13:38:35;;;;;;;;;;;16.50;99.90;;;;;;4973148;28;20047;-83
2022/09/15 13:41:13;;;;;;;;;;;16.30;99.90;;;;;;4971514;28;19929;-80
2022/09/15 13:43:49;;;;;;;;;;;16.10;99.90;;;;;;4997273;28;19936;-77
2022/09/15 13:46:15;;;;;;;;;;;15.90;99.90;;;;;;4964795;28;19929;-80
2022/09/15 13:48:41;;;;;;;;;;;15.90;99.90;;;;;;4965131;28;19972;-79
2022/09/15 13:51:14;;;;;;;;;;;16.00;99.90;;;;;;4963556;28;19929;-79
2022/09/15 13:53:49;;;;;;;;;;;16.00;99.90;;;;;;4966182;28;19929;-77
2022/09/15 13:56:22;;;;;;;;;;;16.00;99.90;;;;;;4980671;28;19933;-79
2022/09/15 13:58:48;;;;;;;;;;;16.10;99.90;;;;;;4965902;28;19929;-79
2022/09/15 14:01:19;;;;;;;;;;;16.10;99.90;;;;;;4979981;28;19930;-83
2022/09/15 14:03:49;;;;;;;;;;;16.10;99.90;;;;;;4980875;28;20504;-77
2022/09/15 14:06:23;;;;;;;;;;;16.10;99.90;;;;;;4963774;28;19929;-80
2022/09/15 14:08:53;;;;;;;;;;;16.10;99.90;;;;;;4973526;28;19936;-83
2022/09/15 14:11:28;;;;;;;;;;;16.00;99.90;;;;;;4947901;28;19930;-78
2022/09/15 14:13:54;;;;;;;;;;;15.90;99.90;;;;;;4960928;28;19952;-78
2022/09/15 14:16:27;;;;;;;;;;;15.90;99.90;;;;;;4965130;28;19937;-79
2022/09/15 14:18:55;;;;;;;;;;;15.80;99.90;;;;;;4964550;28;20530;-83
2022/09/15 14:21:22;;;;;;;;;;;15.80;99.90;;;;;;4961158;28;19929;-82
2022/09/15 14:23:55;;;;;;;;;;;15.70;99.90;;;;;;4963563;28;19941;-78
2022/09/15 14:26:23;;;;;;;;;;;15.70;99.90;;;;;;4944545;28;19929;-78
2022/09/15 14:28:52;;;;;;;;;;;15.70;99.90;;;;;;4946189;28;19988;-78
2022/09/15 14:31:26;;;;;;;;;;;15.60;99.90;;;;;;4961969;28;19977;-78
2022/09/15 14:33:52;;;;;;;;;;;15.60;99.90;;;;;;4962400;28;19933;-79
2022/09/15 14:36:21;;;;;;;;;;;15.50;99.90;;;;;;4962226;28;19949;-83